Nearby METAR Reports

 

KHCR - Heber/Russ Mcdon, Utah, USA
Distance from station: SSW 18mi, 29km
Updated: Mon, 06-Apr-2020 2:35pm MDT
Mostly cloudy
Mostly cloudy
 Wind from SW
Wind: SW 8 mph , 13 km/h, Gust: 17 mph , 28 km/h
Temperature: 54°F , 12°C
Dew Point: 25°F , -4°C
Humidity: 33%
Barometer: 29.85 inHg , 1010.8 hPa
Clouds: Mostly cloudy
Visibility: 10 miles , 16 km
Cloud details: Partly cloudy 7000 ft
Mostly cloudy 11000 ft
2020/04/06 20:35 KHCR 062035Z AUTO 22007G15KT 10SM SCT070 BKN110 12/M04 A2985 RMK AO2
KSLC - Salt Lake City, Utah, USA
Distance from station: W 35mi, 57km
Updated: Mon, 06-Apr-2020 1:54pm MDT
Mostly cloudy
Mostly cloudy
 Wind from S
Wind: S 21 mph , 33 km/h, Gust: 32 mph , 52 km/h
Temperature: 63°F , 17°C
Dew Point: 27°F , -3°C
Humidity: 25%
Barometer: 29.81 inHg , 1009.5 hPa
Clouds: Mostly cloudy
Visibility: 10 miles , 16 km
Cloud details: Few Clouds 6000 ft
Mostly cloudy 10000 ft
Mostly cloudy 12000 ft
Mostly cloudy 22000 ft
2020/04/06 19:54 KSLC 061954Z 19018G28KT 10SM FEW060 BKN100 BKN120 BKN220 17/M03 A2981 RMK AO2 PK WND 20034/1940 SLP060 VIRGA CB DSNT SE SH DSNT N-NE AND SE T01671028
 
KU42 - Salt Lake Muni, Utah, USA
Distance from station: WSW 37mi, 59km
Updated: Mon, 06-Apr-2020 2:35pm MDT
Clear
Clear
 Wind from SSE
Wind: SSE 25 mph , 41 km/h, Gust: 33 mph , 54 km/h
Temperature: 61°F , 16°C
Dew Point: 39°F , 4°C
Humidity: 45%
Barometer: 29.84 inHg , 1010.5 hPa
Clouds: Clear
Visibility: 10 miles , 16 km
2020/04/06 20:35 KU42 062035Z AUTO 16022G29KT 10SM CLR 16/04 A2984 RMK AO1 T01640043
KEVW - Evanston, Wyoming, USA
Distance from station: NNE 40mi, 64km
Updated: Mon, 06-Apr-2020 1:53pm MDT
Mostly cloudy
Mostly cloudy
 Wind from SW
Wind: SW 28 mph , 44 km/h, Gust: 35 mph , 56 km/h
Temperature: 48°F , 9°C
Wind Chill: 40°F , 4°C
Dew Point: 25°F , -4°C
Humidity: 40%
Barometer: 29.88 inHg , 1011.9 hPa
Clouds: Mostly cloudy
Visibility: 10 miles , 16 km
Cloud details: Few Clouds 3800 ft
Mostly cloudy 4600 ft
Mostly cloudy 6000 ft
2020/04/06 19:53 KEVW 061953Z AUTO 23024G30KT 10SM FEW038 BKN046 BKN060 09/M04 A2988 RMK AO2 PK WND 24037/1908 RAB11E22 SLP077 P0000 T00891039
 
KPVU - Provo Muni, Utah, USA
Distance from station: SSW 41mi, 67km
Updated: Mon, 06-Apr-2020 1:56pm MDT
Mostly cloudy
Mostly cloudy
 Wind from SW
Wind: SW 12 mph , 19 km/h
Temperature: 59°F , 15°C
Dew Point: 34°F , 1°C
Humidity: 39%
Barometer: 29.86 inHg , 1011.2 hPa
Clouds: Mostly cloudy
Visibility: 10 miles , 16 km
Cloud details: Mostly cloudy 9000 ft
Mostly cloudy 11000 ft
2020/04/06 19:56 KPVU 061956Z 22010KT 10SM BKN090 BKN110 15/01 A2986 RMK AO2 SLP081 T01500006
KHIF - Hill Afb/Ogden, Utah, USA
Distance from station: NW 45mi, 72km
Updated: Mon, 06-Apr-2020 2:24pm MDT
Overcast
Overcast
 Wind from SW
Wind: SW 8 mph , 13 km/h
Temperature: 52°F , 11°C
Dew Point: 36°F , 2°C
Humidity: 54%
Barometer: 29.85 inHg , 1010.8 hPa
Clouds: Overcast
Visibility: 10 miles , 16 km
Cloud details: Partly cloudy 3800 ft
Mostly cloudy 6500 ft
Mostly cloudy 8500 ft
Overcast 10000 ft
2020/04/06 20:24 KHIF 062024Z 23007KT 10SM SCT038 BKN065 BKN085 OVC100 11/02 A2985 RMK AO2A RAE24 SLP077
 
KOGD - Ogden, Utah, USA
Distance from station: NW 50mi, 81km
Updated: Mon, 06-Apr-2020 1:53pm MDT
Overcast
Overcast
 Wind from calm
Wind: Calm
Temperature: 54°F , 12°C
Dew Point: 30°F , -1°C
Humidity: 41%
Barometer: 29.84 inHg , 1010.5 hPa
Clouds: Overcast
Visibility: 10 miles , 16 km
Cloud details: Few Clouds 5500 ft
Overcast 6500 ft
2020/04/06 19:53 KOGD 061953Z 00000KT 10SM FEW055 OVC065 12/M01 A2984 RMK AO2 WSHFT 1915 LTG DSNT N RAB16E38 SLP071 P0000 T01221011 $